Time;durP1;ratioP1;P1;durP2;ratioP2;P2;SDS_P1;SDS_P2;PMS_P1;PMS_P2;Temp;Humidity;BMP_temperature;BMP_pressure;BME280_temperature;BME280_humidity;BME280_pressure;Samples;Min_cycle;Max_cycle;Signal;HPM_P1;HPM_P2
2021/07/29 00:00:35;;;;;;;;;;;;;;;;;;5116017;28;1226;-89
2021/07/29 00:03:19;;;;;;;;;;;;;;;;;;5097833;28;1159;-89
2021/07/29 00:06:03;;;;;;;;;;;;;;;;;;5097795;28;1239;-89
2021/07/29 00:11:12;;;;;;;;;;;;;;;;;;5116251;28;589;-89
2021/07/29 00:13:58;;;;;;;;;;;;;;;;;;5116119;28;873;-89
2021/07/29 00:22:09;;;;;;;;;;;;;;;;;;5115925;28;652;-90
2021/07/29 00:24:49;;;;;;;;;;;;;;;;;;5115784;28;838;-90
2021/07/29 00:29:58;;;;;;;;;;;;;;;;;;5115876;28;597;-89
2021/07/29 00:32:38;;;;;;;;;;;;;;;;;;5097509;28;1160;-89
2021/07/29 00:35:09;;;;;;;;;;;;;;;;;;5097690;28;1938;-89
2021/07/29 00:37:55;;;;;;;;;;;;;;;;;;5097582;28;1249;-89
2021/07/29 00:43:03;;;;;;;;;;;;;;;;;;5119495;28;597;-90
2021/07/29 00:45:38;;;;;;;;;;;;;;;;;;5101031;28;1160;-90
2021/07/29 00:50:47;;;;;;;;;;;;;;;;;;5119333;28;620;-91
2021/07/29 00:53:13;;;;;;;;;;;;;;;;;;5100783;28;1297;-90
2021/07/29 00:55:53;;;;;;;;;;;;;;;;;;5100872;28;1914;-89
2021/07/29 00:58:24;;;;;;;;;;;;;;;;;;5100764;28;1200;-89
2021/07/29 01:00:49;;;;;;;;;;;;;;;;;;5100787;28;1188;-89
2021/07/29 01:03:22;;;;;;;;;;;;;;;;;;5100726;28;1191;-89
2021/07/29 01:08:50;;;;;;;;;;;;;;;;;;5118878;28;671;-90
2021/07/29 01:11:32;;;;;;;;;;;;;;;;;;5100770;28;1346;-89
2021/07/29 01:13:57;;;;;;;;;;;;;;;;;;5118944;28;857;-90
2021/07/29 01:19:06;;;;;;;;;;;;;;;;;;5118836;28;664;-90
2021/07/29 01:21:40;;;;;;;;;;;;;;;;;;5100455;28;1195;-91
2021/07/29 01:26:49;;;;;;;;;;;;;;;;;;5118680;28;641;-90
2021/07/29 01:31:57;;;;;;;;;;;;;;;;;;5118605;28;581;-92
2021/07/29 01:39:50;;;;;;;;;;;;;;;;;;5117117;28;1027;-92
2021/07/29 01:44:59;;;;;;;;;;;;;;;;;;5118254;28;664;-91
2021/07/29 01:47:32;;;;;;;;;;;;;;;;;;5099810;28;1428;-91
2021/07/29 01:50:09;;;;;;;;;;;;;;;;;;5100074;28;1265;-91
2021/07/29 01:52:34;;;;;;;;;;;;;;;;;;5098914;28;1239;-91
2021/07/29 01:57:59;;;;;;;;;;;;;;;;;;5118053;28;604;-89
2021/07/29 02:08:23;;;;;;;;;;;;;;;;;;5117874;28;584;-90
2021/07/29 02:11:10;;;;;;;;;;;;;;;;;;5099441;28;1297;-89
2021/07/29 02:13:46;;;;;;;;;;;;;;;;;;5099406;28;1280;-90
2021/07/29 02:16:28;;;;;;;;;;;;;;;;;;5117450;28;1949;-90
2021/07/29 02:19:03;;;;;;;;;;;;;;;;;;5099116;28;1288;-90
2021/07/29 02:27:04;;;;;;;;;;;;;;;;;;5015221;28;653;-89
2021/07/29 02:38:25;;;;;;;;;;;;;;;;;;4956670;29;1096;-90
2021/07/29 02:46:16;;;;;;;;;;;;;;;;;;4956574;29;654;-90
2021/07/29 02:51:40;;;;;;;;;;;;;;;;;;4933320;29;1303;-91
2021/07/29 02:54:05;;;;;;;;;;;;;;;;;;4937232;29;1435;-88
2021/07/29 03:02:10;;;;;;;;;;;;;;;;;;4985246;28;1062;-89
2021/07/29 03:10:03;;;;;;;;;;;;;;;;;;5014725;28;605;-89
2021/07/29 03:18:10;;;;;;;;;;;;;;;;;;5054108;28;574;-90
2021/07/29 03:23:31;;;;;;;;;;;;;;;;;;5053886;28;617;-90
2021/07/29 03:25:57;;;;;;;;;;;;;;;;;;5037234;28;1349;-90
2021/07/29 03:28:34;;;;;;;;;;;;;;;;;;5076205;28;1282;-89
2021/07/29 03:31:17;;;;;;;;;;;;;;;;;;5078091;28;1192;-89
2021/07/29 03:36:26;;;;;;;;;;;;;;;;;;5095993;28;1878;-89
2021/07/29 03:39:05;;;;;;;;;;;;;;;;;;5077962;28;1210;-90
2021/07/29 03:41:40;;;;;;;;;;;;;;;;;;5077880;28;1270;-90
2021/07/29 03:44:17;;;;;;;;;;;;;;;;;;5077879;28;1186;-90
2021/07/29 03:49:26;;;;;;;;;;;;;;;;;;5095986;28;648;-90
2021/07/29 03:51:59;;;;;;;;;;;;;;;;;;5089606;28;1007;-91
2021/07/29 03:54:25;;;;;;;;;;;;;;;;;;5077344;28;1918;-90
2021/07/29 03:56:59;;;;;;;;;;;;;;;;;;5076986;28;1262;-89
2021/07/29 03:59:38;;;;;;;;;;;;;;;;;;5095662;28;889;-89
2021/07/29 04:02:19;;;;;;;;;;;;;;;;;;5077465;28;1256;-88
2021/07/29 04:07:41;;;;;;;;;;;;;;;;;;5095814;28;652;-88
2021/07/29 04:10:19;;;;;;;;;;;;;;;;;;5095644;28;876;-88
2021/07/29 04:12:59;;;;;;;;;;;;;;;;;;5077638;28;1242;-88
2021/07/29 04:18:08;;;;;;;;;;;;;;;;;;5099589;28;620;-89
2021/07/29 04:23:19;;;;;;;;;;;;;;;;;;5099529;28;664;-88
2021/07/29 04:36:55;;;;;;;;;;;;;;;;;;5017288;28;926;-88
2021/07/29 04:42:05;;;;;;;;;;;;;;;;;;5017299;28;1094;-87
2021/07/29 04:44:41;;;;;;;;;;;;;;;;;;5000594;28;1374;-88
2021/07/29 04:47:07;;;;;;;;;;;;;;;;;;5000532;28;1189;-88
2021/07/29 04:49:33;;;;;;;;;;;;;;;;;;5000593;28;1322;-86
2021/07/29 04:52:08;;;;;;;;;;;;;;;;;;4999948;28;1150;-85
2021/07/29 04:54:33;;;;;;;;;;;;;;;;;;5000255;28;1906;-85
2021/07/29 04:57:07;;;;;;;;;;;;;;;;;;5016888;28;815;-85
2021/07/29 04:59:39;;;;;;;;;;;;;;;;;;5000281;28;1310;-85
2021/07/29 05:02:05;;;;;;;;;;;;;;;;;;5000397;28;1169;-85
2021/07/29 05:07:23;;;;;;;;;;;;;;;;;;5016929;28;1114;-87
2021/07/29 05:10:07;;;;;;;;;;;;;;;;;;4996860;28;1347;-87
2021/07/29 05:12:44;;;;;;;;;;;;;;;;;;5017216;28;1156;-87
2021/07/29 05:15:25;;;;;;;;;;;;;;;;;;5080292;28;1890;-87
2021/07/29 05:18:03;;;;;;;;;;;;;;;;;;5080438;28;1168;-88
2021/07/29 05:20:30;;;;;;;;;;;;;;;;;;5080291;28;1272;-88
2021/07/29 05:23:09;;;;;;;;;;;;;;;;;;5080267;28;1328;-88
2021/07/29 05:25:51;;;;;;;;;;;;;;;;;;5080257;28;1331;-89
2021/07/29 05:34:00;;;;;;;;;;;;;;;;;;5016140;28;959;-88
2021/07/29 05:39:08;;;;;;;;;;;;;;;;;;5015891;28;665;-89
2021/07/29 05:41:51;;;;;;;;;;;;;;;;;;5015912;28;1244;-89
2021/07/29 05:47:12;;;;;;;;;;;;;;;;;;5015889;28;935;-89
2021/07/29 05:49:57;;;;;;;;;;;;;;;;;;5015761;28;1404;-89
2021/07/29 05:52:31;;;;;;;;;;;;;;;;;;5015552;28;1247;-90
2021/07/29 05:54:56;;;;;;;;;;;;;;;;;;5012588;28;1883;-89
2021/07/29 05:57:35;;;;;;;;;;;;;;;;;;4996178;28;1195;-90
2021/07/29 06:03:03;;;;;;;;;;;;;;;;;;4996196;28;649;-90
2021/07/29 06:13:58;;;;;;;;;;;;;;;;;;5057063;28;672;-89
2021/07/29 06:16:25;;;;;;;;;;;;;;;;;;5055854;28;1890;-90
2021/07/29 06:21:34;;;;;;;;;;;;;;;;;;5056904;28;605;-90
2021/07/29 06:24:05;;;;;;;;;;;;;;;;;;5063785;28;1589;-90
2021/07/29 06:26:50;;;;;;;;;;;;;;;;;;5072421;28;1590;-91
2021/07/29 06:29:36;;;;;;;;;;;;;;;;;;5055650;28;1348;-90
2021/07/29 06:32:02;;;;;;;;;;;;;;;;;;5055554;28;1344;-89
2021/07/29 06:37:27;;;;;;;;;;;;;;;;;;5056529;28;1449;-89
2021/07/29 06:40:00;;;;;;;;;;;;;;;;;;5055439;28;1569;-89
2021/07/29 06:45:23;;;;;;;;;;;;;;;;;;5076357;28;1579;-88
2021/07/29 06:47:48;;;;;;;;;;;;;;;;;;5075088;28;1414;-92
2021/07/29 06:50:26;;;;;;;;;;;;;;;;;;5071557;28;1582;-91
2021/07/29 06:52:51;;;;;;;;;;;;;;;;;;5059062;28;1235;-90
2021/07/29 06:55:16;;;;;;;;;;;;;;;;;;5092982;28;1972;-89
2021/07/29 07:03:28;;;;;;;;;;;;;;;;;;5109646;28;1286;-92
2021/07/29 07:06:05;;;;;;;;;;;;;;;;;;5083949;28;1488;-91
2021/07/29 07:08:41;;;;;;;;;;;;;;;;;;5116671;28;912;-91
2021/07/29 07:11:23;;;;;;;;;;;;;;;;;;5097781;28;1389;-92
2021/07/29 07:14:06;;;;;;;;;;;;;;;;;;5098132;28;1585;-92
2021/07/29 07:22:06;;;;;;;;;;;;;;;;;;5009847;28;1496;-92
2021/07/29 07:29:58;;;;;;;;;;;;;;;;;;5014362;28;1418;-94
2021/07/29 07:40:47;;;;;;;;;;;;;;;;;;5014405;28;1502;-86
2021/07/29 07:43:29;;;;;;;;;;;;;;;;;;4997809;28;1344;-85
2021/07/29 07:45:55;;;;;;;;;;;;;;;;;;5014309;28;1659;-85
2021/07/29 07:48:21;;;;;;;;;;;;;;;;;;5014044;28;1291;-86
2021/07/29 07:51:01;;;;;;;;;;;;;;;;;;4997765;28;1311;-84
2021/07/29 07:53:30;;;;;;;;;;;;;;;;;;5001016;28;1603;-89
2021/07/29 07:55:55;;;;;;;;;;;;;;;;;;5004515;28;1906;-86
2021/07/29 07:58:22;;;;;;;;;;;;;;;;;;5045840;28;1484;-84
2021/07/29 08:03:16;;;;;;;;;;;;;;;;;;5089388;28;1453;-88
2021/07/29 08:05:49;;;;;;;;;;;;;;;;;;5098723;28;1283;-86
2021/07/29 08:08:23;;;;;;;;;;;;;;;;;;5095718;28;1776;-86
2021/07/29 08:10:50;;;;;;;;;;;;;;;;;;5094710;28;1410;-87
2021/07/29 08:19:05;;;;;;;;;;;;;;;;;;5079915;28;605;-87
2021/07/29 08:24:24;;;;;;;;;;;;;;;;;;5092661;28;1540;-84
2021/07/29 08:27:02;;;;;;;;;;;;;;;;;;5098184;28;1520;-83
2021/07/29 08:29:30;;;;;;;;;;;;;;;;;;5096235;28;1600;-89
2021/07/29 08:31:55;;;;;;;;;;;;;;;;;;5090436;28;1351;-86
2021/07/29 08:34:22;;;;;;;;;;;;;;;;;;5098638;28;1612;-85
2021/07/29 08:36:57;;;;;;;;;;;;;;;;;;5097820;28;1890;-89
2021/07/29 08:42:01;;;;;;;;;;;;;;;;;;5098973;28;1607;-89
2021/07/29 08:47:24;;;;;;;;;;;;;;;;;;5024254;28;1554;-85
2021/07/29 08:50:01;;;;;;;;;;;;;;;;;;5019265;28;1282;-88
2021/07/29 08:52:27;;;;;;;;;;;;;;;;;;5020649;28;1289;-88
2021/07/29 08:54:52;;;;;;;;;;;;;;;;;;5025737;28;1906;-85
2021/07/29 08:57:28;;;;;;;;;;;;;;;;;;5037017;28;1229;-87
2021/07/29 09:00:05;;;;;;;;;;;;;;;;;;5037816;28;1224;-91
2021/07/29 09:02:33;;;;;;;;;;;;;;;;;;5019482;28;1350;-84
2021/07/29 09:05:07;;;;;;;;;;;;;;;;;;5029677;28;1353;-84
2021/07/29 09:07:35;;;;;;;;;;;;;;;;;;5016522;28;877;-84
2021/07/29 09:12:56;;;;;;;;;;;;;;;;;;4977372;28;1272;-90
2021/07/29 09:15:23;;;;;;;;;;;;;;;;;;4970932;28;1898;-90
2021/07/29 09:18:08;;;;;;;;;;;;;;;;;;4965575;28;1357;-89
2021/07/29 09:20:33;;;;;;;;;;;;;;;;;;4974697;28;1582;-89
2021/07/29 09:25:43;;;;;;;;;;;;;;;;;;5052680;28;1239;-87
2021/07/29 09:28:10;;;;;;;;;;;;;;;;;;5039987;28;1151;-86
2021/07/29 09:30:44;;;;;;;;;;;;;;;;;;5035148;28;1416;-92
2021/07/29 09:33:13;;;;;;;;;;;;;;;;;;5056301;28;1638;-82
2021/07/29 09:35:39;;;;;;;;;;;;;;;;;;5055748;28;1890;-82
2021/07/29 09:43:32;;;;;;;;;;;;;;;;;;5049413;28;1451;-94
2021/07/29 09:46:10;;;;;;;;;;;;;;;;;;5021955;28;1327;-94
2021/07/29 09:54:03;;;;;;;;;;;;;;;;;;5107079;28;1478;-87
2021/07/29 09:56:30;;;;;;;;;;;;;;;;;;5117748;28;1910;-86
2021/07/29 09:59:03;;;;;;;;;;;;;;;;;;5099158;28;1445;-80
2021/07/29 10:01:28;;;;;;;;;;;;;;;;;;5118090;28;1401;-80
2021/07/29 10:03:53;;;;;;;;;;;;;;;;;;5122570;28;912;-80
2021/07/29 10:06:30;;;;;;;;;;;;;;;;;;5099437;28;1063;-80
2021/07/29 10:08:56;;;;;;;;;;;;;;;;;;5117722;28;858;-80
2021/07/29 10:11:41;;;;;;;;;;;;;;;;;;5117462;28;924;-80
2021/07/29 10:16:36;;;;;;;;;;;;;;;;;;5117538;28;1894;-80
2021/07/29 10:21:35;;;;;;;;;;;;;;;;;;5117239;28;1169;-81
2021/07/29 10:24:00;;;;;;;;;;;;;;;;;;5099030;28;1294;-80
2021/07/29 10:26:41;;;;;;;;;;;;;;;;;;5098995;28;1223;-80
2021/07/29 10:29:07;;;;;;;;;;;;;;;;;;5116798;28;1772;-80
2021/07/29 10:34:28;;;;;;;;;;;;;;;;;;5014654;28;1113;-81
2021/07/29 10:36:54;;;;;;;;;;;;;;;;;;4998281;28;1899;-80
2021/07/29 10:39:20;;;;;;;;;;;;;;;;;;5014551;28;1090;-80
2021/07/29 10:41:47;;;;;;;;;;;;;;;;;;4998186;28;1152;-80
2021/07/29 10:44:13;;;;;;;;;;;;;;;;;;5014483;28;981;-80
2021/07/29 10:46:39;;;;;;;;;;;;;;;;;;4997596;28;1429;-78
2021/07/29 10:49:16;;;;;;;;;;;;;;;;;;4997838;28;1564;-80
2021/07/29 10:54:24;;;;;;;;;;;;;;;;;;5014207;28;1603;-80
2021/07/29 10:57:05;;;;;;;;;;;;;;;;;;4997514;28;1969;-79
2021/07/29 10:59:31;;;;;;;;;;;;;;;;;;5003265;28;1286;-80
2021/07/29 11:02:00;;;;;;;;;;;;;;;;;;5014772;28;1477;-80
2021/07/29 11:04:29;;;;;;;;;;;;;;;;;;4978731;28;1221;-79
2021/07/29 11:07:13;;;;;;;;;;;;;;;;;;4997024;28;1463;-85
2021/07/29 11:09:58;;;;;;;;;;;;;;;;;;4999726;28;1335;-85
2021/07/29 11:12:23;;;;;;;;;;;;;;;;;;5095682;28;961;-82
2021/07/29 11:14:50;;;;;;;;;;;;;;;;;;5093237;28;1941;-83
2021/07/29 11:17:21;;;;;;;;;;;;;;;;;;5096071;28;1389;-87
2021/07/29 11:19:57;;;;;;;;;;;;;;;;;;5098698;28;1442;-85
2021/07/29 11:22:24;;;;;;;;;;;;;;;;;;5100586;28;1199;-91
2021/07/29 11:27:33;;;;;;;;;;;;;;;;;;5119411;28;667;-93
2021/07/29 11:29:59;;;;;;;;;;;;;;;;;;5099324;28;1679;-81
2021/07/29 11:32:32;;;;;;;;;;;;;;;;;;5098357;28;1238;-81
2021/07/29 11:34:57;;;;;;;;;;;;;;;;;;5096857;28;1890;-81
2021/07/29 11:37:23;;;;;;;;;;;;;;;;;;5097870;28;1339;-81
2021/07/29 11:39:49;;;;;;;;;;;;;;;;;;5103517;28;1447;-80
2021/07/29 11:42:21;;;;;;;;;;;;;;;;;;5095443;28;1370;-80
2021/07/29 11:44:49;;;;;;;;;;;;;;;;;;5115892;28;936;-81
2021/07/29 11:47:16;;;;;;;;;;;;;;;;;;5097280;28;1253;-82
2021/07/29 11:49:41;;;;;;;;;;;;;;;;;;5092429;28;1374;-81
2021/07/29 11:52:08;;;;;;;;;;;;;;;;;;5095128;28;1023;-82
2021/07/29 11:54:34;;;;;;;;;;;;;;;;;;5103329;28;1178;-81
2021/07/29 11:57:07;;;;;;;;;;;;;;;;;;5096579;28;1961;-81
2021/07/29 11:59:33;;;;;;;;;;;;;;;;;;5111857;28;1204;-83
2021/07/29 12:02:00;;;;;;;;;;;;;;;;;;5078727;28;1401;-81
2021/07/29 12:07:22;;;;;;;;;;;;;;;;;;5052976;28;1187;-81
2021/07/29 12:09:49;;;;;;;;;;;;;;;;;;5052954;28;961;-81
2021/07/29 12:12:16;;;;;;;;;;;;;;;;;;5052272;28;1068;-81
2021/07/29 12:14:59;;;;;;;;;;;;;;;;;;5052914;28;925;-81
2021/07/29 12:17:24;;;;;;;;;;;;;;;;;;5052772;28;1326;-81
2021/07/29 12:19:50;;;;;;;;;;;;;;;;;;5053273;28;594;-81
2021/07/29 12:22:17;;;;;;;;;;;;;;;;;;5032793;28;1176;-82
2021/07/29 12:24:44;;;;;;;;;;;;;;;;;;5033002;28;1093;-81
2021/07/29 12:27:09;;;;;;;;;;;;;;;;;;5016433;28;1252;-82
2021/07/29 12:29:44;;;;;;;;;;;;;;;;;;5037386;28;1507;-81
2021/07/29 12:32:09;;;;;;;;;;;;;;;;;;5034625;28;1709;-81
2021/07/29 12:34:36;;;;;;;;;;;;;;;;;;5049315;28;1301;-80
2021/07/29 12:37:03;;;;;;;;;;;;;;;;;;5053421;28;1886;-83
2021/07/29 12:39:28;;;;;;;;;;;;;;;;;;5056513;28;1298;-81
2021/07/29 12:41:55;;;;;;;;;;;;;;;;;;5048947;28;1344;-80
2021/07/29 12:44:27;;;;;;;;;;;;;;;;;;5085679;28;1456;-83
2021/07/29 12:46:54;;;;;;;;;;;;;;;;;;5100781;28;1361;-81
2021/07/29 12:51:56;;;;;;;;;;;;;;;;;;5119453;28;787;-82
2021/07/29 12:54:21;;;;;;;;;;;;;;;;;;5098516;28;1512;-80
2021/07/29 12:56:46;;;;;;;;;;;;;;;;;;5091344;28;1906;-85
2021/07/29 12:59:14;;;;;;;;;;;;;;;;;;5118755;28;1470;-83
2021/07/29 13:01:42;;;;;;;;;;;;;;;;;;5118961;28;917;-84
2021/07/29 13:04:15;;;;;;;;;;;;;;;;;;5100854;28;1293;-83
2021/07/29 13:06:59;;;;;;;;;;;;;;;;;;5100380;28;1401;-83
2021/07/29 13:09:26;;;;;;;;;;;;;;;;;;5118562;28;1481;-83
2021/07/29 13:11:53;;;;;;;;;;;;;;;;;;5100446;28;1183;-83
2021/07/29 13:14:20;;;;;;;;;;;;;;;;;;5094603;28;1284;-82
2021/07/29 13:16:55;;;;;;;;;;;;;;;;;;5094661;28;1941;-82
2021/07/29 13:19:26;;;;;;;;;;;;;;;;;;5085190;28;1428;-82
2021/07/29 13:21:52;;;;;;;;;;;;;;;;;;5110318;28;1207;-81
2021/07/29 13:24:38;;;;;;;;;;;;;;;;;;5099949;28;1372;-81
2021/07/29 13:29:50;;;;;;;;;;;;;;;;;;5109350;28;1295;-88
2021/07/29 13:34:55;;;;;;;;;;;;;;;;;;5118989;28;825;-82
2021/07/29 13:37:20;;;;;;;;;;;;;;;;;;5117863;28;849;-83
2021/07/29 13:39:47;;;;;;;;;;;;;;;;;;5118060;28;897;-82
2021/07/29 13:42:14;;;;;;;;;;;;;;;;;;5104667;28;1134;-82
2021/07/29 13:47:48;;;;;;;;;;;;;;;;;;5035256;28;1100;-81
2021/07/29 13:50:15;;;;;;;;;;;;;;;;;;5034257;28;952;-81
2021/07/29 13:55:38;;;;;;;;;;;;;;;;;;4976277;28;1965;-82
2021/07/29 13:58:13;;;;;;;;;;;;;;;;;;4960136;28;1218;-82
2021/07/29 14:00:40;;;;;;;;;;;;;;;;;;4976336;28;1213;-82
2021/07/29 14:03:06;;;;;;;;;;;;;;;;;;4960220;28;1305;-82
2021/07/29 14:05:41;;;;;;;;;;;;;;;;;;4960159;28;1220;-81
2021/07/29 14:08:07;;;;;;;;;;;;;;;;;;4975017;28;969;-82
2021/07/29 14:10:32;;;;;;;;;;;;;;;;;;4960922;28;1260;-82
2021/07/29 14:12:57;;;;;;;;;;;;;;;;;;4960061;28;1189;-81
2021/07/29 14:15:23;;;;;;;;;;;;;;;;;;4976142;28;1887;-81
2021/07/29 14:18:10;;;;;;;;;;;;;;;;;;4959685;28;1170;-81
2021/07/29 14:20:58;;;;;;;;;;;;;;;;;;4981895;28;880;-81
2021/07/29 14:23:24;;;;;;;;;;;;;;;;;;5012690;28;1440;-81
2021/07/29 14:25:51;;;;;;;;;;;;;;;;;;5054620;28;954;-81
2021/07/29 14:28:19;;;;;;;;;;;;;;;;;;5033897;28;1324;-81
2021/07/29 14:30:46;;;;;;;;;;;;;;;;;;5071093;28;1580;-81
2021/07/29 14:33:25;;;;;;;;;;;;;;;;;;5096697;28;1008;-81
2021/07/29 14:38:21;;;;;;;;;;;;;;;;;;5096974;28;839;-81
2021/07/29 14:40:57;;;;;;;;;;;;;;;;;;5095408;28;1265;-81
2021/07/29 14:43:24;;;;;;;;;;;;;;;;;;5096555;28;925;-81
2021/07/29 14:48:46;;;;;;;;;;;;;;;;;;5096411;28;620;-81
2021/07/29 14:51:13;;;;;;;;;;;;;;;;;;5096378;28;818;-82
2021/07/29 14:53:39;;;;;;;;;;;;;;;;;;5096311;28;964;-81
2021/07/29 14:56:10;;;;;;;;;;;;;;;;;;5094695;28;1901;-81
2021/07/29 16:11:54;;;;;;;;;;;;;;;;;;5096550;28;846;-78
2021/07/29 16:14:32;;;;;;;;;;;;;;;;;;5081285;28;1362;-79
2021/07/29 16:19:53;;;;;;;;;;;;;;;;;;5099496;28;617;-79
2021/07/29 16:22:36;;;;;;;;;;;;;;;;;;5081016;28;1183;-79
2021/07/29 16:25:07;;;;;;;;;;;;;;;;;;5081075;28;1243;-78
2021/07/29 16:27:34;;;;;;;;;;;;;;;;;;5099122;28;818;-79
2021/07/29 16:30:08;;;;;;;;;;;;;;;;;;5080904;28;1148;-79
2021/07/29 16:32:35;;;;;;;;;;;;;;;;;;5099162;28;937;-79
2021/07/29 16:35:14;;;;;;;;;;;;;;;;;;5080802;28;1935;-79
2021/07/29 16:37:45;;;;;;;;;;;;;;;;;;5080841;28;1300;-79
2021/07/29 16:40:16;;;;;;;;;;;;;;;;;;5080762;28;1171;-79
2021/07/29 16:42:44;;;;;;;;;;;;;;;;;;5098957;28;909;-78
2021/07/29 16:45:19;;;;;;;;;;;;;;;;;;5080607;28;1337;-79
2021/07/29 16:47:45;;;;;;;;;;;;;;;;;;5098727;28;948;-79
2021/07/29 16:50:10;;;;;;;;;;;;;;;;;;5080454;28;1268;-79
2021/07/29 16:52:36;;;;;;;;;;;;;;;;;;5080332;28;1172;-79
2021/07/29 16:55:03;;;;;;;;;;;;;;;;;;5098899;28;1932;-79
2021/07/29 16:57:28;;;;;;;;;;;;;;;;;;5080112;28;1358;-79
2021/07/29 17:00:01;;;;;;;;;;;;;;;;;;5080347;28;1228;-79
2021/07/29 17:02:28;;;;;;;;;;;;;;;;;;5098596;28;956;-79
2021/07/29 17:04:55;;;;;;;;;;;;;;;;;;5080374;28;1310;-79
2021/07/29 17:07:22;;;;;;;;;;;;;;;;;;5080293;28;1195;-78
2021/07/29 17:09:55;;;;;;;;;;;;;;;;;;5080140;28;1250;-79
2021/07/29 17:14:51;;;;;;;;;;;;;;;;;;5098554;28;846;-79
2021/07/29 17:20:03;;;;;;;;;;;;;;;;;;5098147;28;688;-79
2021/07/29 17:24:56;;;;;;;;;;;;;;;;;;5098465;28;811;-78
2021/07/29 17:30:22;;;;;;;;;;;;;;;;;;5015950;28;973;-80
2021/07/29 17:32:48;;;;;;;;;;;;;;;;;;5015932;28;874;-79
2021/07/29 17:35:22;;;;;;;;;;;;;;;;;;4999431;28;1879;-79
2021/07/29 17:37:48;;;;;;;;;;;;;;;;;;4999524;28;1387;-79
2021/07/29 17:40:30;;;;;;;;;;;;;;;;;;4999255;28;1355;-79
2021/07/29 17:45:53;;;;;;;;;;;;;;;;;;4993503;28;1002;-78
2021/07/29 17:48:19;;;;;;;;;;;;;;;;;;4995918;28;1091;-78
2021/07/29 17:50:45;;;;;;;;;;;;;;;;;;4995931;28;1280;-78
2021/07/29 17:53:32;;;;;;;;;;;;;;;;;;4995816;28;1170;-79
2021/07/29 17:55:57;;;;;;;;;;;;;;;;;;4995593;28;1924;-79
2021/07/29 17:58:22;;;;;;;;;;;;;;;;;;4995691;28;1208;-78
2021/07/29 18:00:59;;;;;;;;;;;;;;;;;;4995641;28;1255;-79
2021/07/29 18:03:25;;;;;;;;;;;;;;;;;;4995718;28;1372;-79
2021/07/29 18:06:07;;;;;;;;;;;;;;;;;;4996082;28;1165;-79
2021/07/29 18:08:32;;;;;;;;;;;;;;;;;;5015311;28;923;-79
2021/07/29 18:10:57;;;;;;;;;;;;;;;;;;5015246;28;1173;-79
2021/07/29 18:13:23;;;;;;;;;;;;;;;;;;5015118;28;1198;-79
2021/07/29 18:15:51;;;;;;;;;;;;;;;;;;5015136;28;1906;-79
2021/07/29 18:18:17;;;;;;;;;;;;;;;;;;5015077;28;942;-79
2021/07/29 18:20:48;;;;;;;;;;;;;;;;;;5030718;28;935;-79
2021/07/29 18:23:18;;;;;;;;;;;;;;;;;;5096900;28;877;-78
2021/07/29 18:25:44;;;;;;;;;;;;;;;;;;5078869;28;1338;-79
2021/07/29 18:28:10;;;;;;;;;;;;;;;;;;5078574;28;1239;-79
2021/07/29 18:30:36;;;;;;;;;;;;;;;;;;5097034;28;878;-79
2021/07/29 18:35:45;;;;;;;;;;;;;;;;;;5096209;28;1945;-79
2021/07/29 18:38:13;;;;;;;;;;;;;;;;;;5078488;28;1383;-79
2021/07/29 18:40:38;;;;;;;;;;;;;;;;;;5096521;28;862;-78
2021/07/29 18:43:09;;;;;;;;;;;;;;;;;;5078610;28;1191;-79
2021/07/29 18:45:56;;;;;;;;;;;;;;;;;;5078495;28;1209;-78
2021/07/29 18:48:22;;;;;;;;;;;;;;;;;;5096654;28;841;-78
2021/07/29 18:50:54;;;;;;;;;;;;;;;;;;5096419;28;921;-78
2021/07/29 18:53:20;;;;;;;;;;;;;;;;;;5096434;28;826;-79
2021/07/29 18:55:54;;;;;;;;;;;;;;;;;;5077284;28;1950;-79
2021/07/29 18:58:19;;;;;;;;;;;;;;;;;;5078115;28;1207;-79
2021/07/29 19:00:53;;;;;;;;;;;;;;;;;;5078185;28;1370;-79
2021/07/29 19:03:25;;;;;;;;;;;;;;;;;;5078170;28;1291;-79
2021/07/29 19:05:50;;;;;;;;;;;;;;;;;;5096160;28;877;-79
2021/07/29 19:08:27;;;;;;;;;;;;;;;;;;5078118;28;1284;-78
2021/07/29 19:14:08;;;;;;;;;;;;;;;;;;5014203;28;759;-78
2021/07/29 19:16:34;;;;;;;;;;;;;;;;;;4997738;28;1898;-79
2021/07/29 19:19:13;;;;;;;;;;;;;;;;;;4997603;28;1290;-78
2021/07/29 19:21:53;;;;;;;;;;;;;;;;;;5014141;28;1085;-78
2021/07/29 19:24:25;;;;;;;;;;;;;;;;;;4997688;28;1201;-79
2021/07/29 19:27:06;;;;;;;;;;;;;;;;;;4997424;28;1323;-79
2021/07/29 19:29:31;;;;;;;;;;;;;;;;;;5014146;28;894;-79
2021/07/29 19:31:57;;;;;;;;;;;;;;;;;;4997567;28;1240;-79
2021/07/29 19:37:06;;;;;;;;;;;;;;;;;;5014000;28;1961;-79
2021/07/29 19:39:32;;;;;;;;;;;;;;;;;;5013998;28;922;-79
2021/07/29 19:42:13;;;;;;;;;;;;;;;;;;4997288;28;1305;-79
2021/07/29 19:47:30;;;;;;;;;;;;;;;;;;5039645;28;947;-78
2021/07/29 19:50:03;;;;;;;;;;;;;;;;;;5081716;28;1231;-79
2021/07/29 19:52:45;;;;;;;;;;;;;;;;;;5080887;28;1187;-79
2021/07/29 19:55:11;;;;;;;;;;;;;;;;;;5100844;28;1886;-79
2021/07/29 19:57:36;;;;;;;;;;;;;;;;;;5118794;28;1194;-80
2021/07/29 20:00:04;;;;;;;;;;;;;;;;;;5118910;28;1338;-79
2021/07/29 20:02:30;;;;;;;;;;;;;;;;;;5119831;28;1235;-79
2021/07/29 20:05:09;;;;;;;;;;;;;;;;;;5118778;28;1273;-79
2021/07/29 20:07:35;;;;;;;;;;;;;;;;;;5120180;28;862;-79
2021/07/29 20:10:09;;;;;;;;;;;;;;;;;;5118704;28;1197;-79
2021/07/29 20:12:42;;;;;;;;;;;;;;;;;;5118754;28;1358;-79
2021/07/29 20:15:13;;;;;;;;;;;;;;;;;;5118661;28;1905;-79
2021/07/29 20:17:39;;;;;;;;;;;;;;;;;;5119960;28;854;-79
2021/07/29 20:22:33;;;;;;;;;;;;;;;;;;5120150;28;849;-79
2021/07/29 20:27:56;;;;;;;;;;;;;;;;;;5036999;28;984;-79
2021/07/29 20:33:07;;;;;;;;;;;;;;;;;;5036027;28;1039;-79
2021/07/29 20:35:44;;;;;;;;;;;;;;;;;;5036094;28;1953;-79
2021/07/29 20:38:26;;;;;;;;;;;;;;;;;;5036828;28;1082;-79
2021/07/29 20:40:52;;;;;;;;;;;;;;;;;;5020227;28;1266;-79
2021/07/29 20:43:19;;;;;;;;;;;;;;;;;;5020108;28;1362;-79
2021/07/29 20:46:04;;;;;;;;;;;;;;;;;;5036640;28;1054;-79
2021/07/29 20:48:41;;;;;;;;;;;;;;;;;;5036655;28;902;-79
2021/07/29 20:51:14;;;;;;;;;;;;;;;;;;5036721;28;1078;-79
2021/07/29 20:53:48;;;;;;;;;;;;;;;;;;5019961;28;1088;-78
2021/07/29 20:56:15;;;;;;;;;;;;;;;;;;5019135;28;1883;-79
2021/07/29 20:58:40;;;;;;;;;;;;;;;;;;5019531;28;1222;-79
2021/07/29 21:01:06;;;;;;;;;;;;;;;;;;5036244;28;1049;-78
2021/07/29 21:08:59;;;;;;;;;;;;;;;;;;5078332;28;625;-79
2021/07/29 21:11:26;;;;;;;;;;;;;;;;;;5078214;28;1040;-80
2021/07/29 21:13:53;;;;;;;;;;;;;;;;;;5093695;28;1150;-79
2021/07/29 21:16:19;;;;;;;;;;;;;;;;;;5096601;28;1909;-79
2021/07/29 21:18:46;;;;;;;;;;;;;;;;;;5113389;28;1230;-79
2021/07/29 21:21:24;;;;;;;;;;;;;;;;;;5114067;28;1191;-79
2021/07/29 21:26:28;;;;;;;;;;;;;;;;;;5098320;28;843;-79
2021/07/29 21:31:31;;;;;;;;;;;;;;;;;;5097959;28;1113;-79
2021/07/29 21:33:58;;;;;;;;;;;;;;;;;;5098122;28;834;-79
2021/07/29 21:39:28;;;;;;;;;;;;;;;;;;5035679;28;688;-79
2021/07/29 21:41:55;;;;;;;;;;;;;;;;;;5018866;28;1296;-78
2021/07/29 21:44:21;;;;;;;;;;;;;;;;;;5034123;28;985;-78
2021/07/29 21:46:47;;;;;;;;;;;;;;;;;;5018824;28;1310;-78
2021/07/29 21:49:14;;;;;;;;;;;;;;;;;;5035512;28;949;-78
2021/07/29 21:51:40;;;;;;;;;;;;;;;;;;5019017;28;1366;-78
2021/07/29 21:56:51;;;;;;;;;;;;;;;;;;5034478;28;1911;-79
2021/07/29 21:59:16;;;;;;;;;;;;;;;;;;5015672;28;978;-79
2021/07/29 22:01:41;;;;;;;;;;;;;;;;;;5015356;28;1250;-79
2021/07/29 22:04:06;;;;;;;;;;;;;;;;;;5015388;28;1377;-79
2021/07/29 22:06:32;;;;;;;;;;;;;;;;;;5015218;28;930;-78
2021/07/29 22:08:58;;;;;;;;;;;;;;;;;;5015016;28;1104;-79
2021/07/29 22:11:24;;;;;;;;;;;;;;;;;;5071786;28;1183;-79
2021/07/29 22:13:57;;;;;;;;;;;;;;;;;;5055648;28;1156;-78
2021/07/29 22:19:16;;;;;;;;;;;;;;;;;;5056953;28;606;-79
2021/07/29 22:21:57;;;;;;;;;;;;;;;;;;5055656;28;1160;-78
2021/07/29 22:24:37;;;;;;;;;;;;;;;;;;5055647;28;1363;-78
2021/07/29 22:27:08;;;;;;;;;;;;;;;;;;5055508;28;1331;-78
2021/07/29 22:29:40;;;;;;;;;;;;;;;;;;5055603;28;1294;-79
2021/07/29 22:32:06;;;;;;;;;;;;;;;;;;5055324;28;1301;-79
2021/07/29 22:34:38;;;;;;;;;;;;;;;;;;5055411;28;1309;-79
2021/07/29 22:37:13;;;;;;;;;;;;;;;;;;5055460;28;1883;-79
2021/07/29 22:39:39;;;;;;;;;;;;;;;;;;5055523;28;1379;-79
2021/07/29 22:42:04;;;;;;;;;;;;;;;;;;5055319;28;1184;-79
2021/07/29 22:44:29;;;;;;;;;;;;;;;;;;5056369;28;977;-79
2021/07/29 22:47:12;;;;;;;;;;;;;;;;;;5055956;28;1307;-80
2021/07/29 22:49:38;;;;;;;;;;;;;;;;;;5056371;28;891;-78
2021/07/29 22:52:11;;;;;;;;;;;;;;;;;;5056176;28;961;-79
2021/07/29 22:54:36;;;;;;;;;;;;;;;;;;5054994;28;1223;-79
2021/07/29 22:57:02;;;;;;;;;;;;;;;;;;5059179;28;1913;-79
2021/07/29 22:59:31;;;;;;;;;;;;;;;;;;5078255;28;1403;-78
2021/07/29 23:02:06;;;;;;;;;;;;;;;;;;5096262;28;873;-79
2021/07/29 23:04:32;;;;;;;;;;;;;;;;;;5096244;28;890;-79
2021/07/29 23:06:58;;;;;;;;;;;;;;;;;;5096474;28;866;-79
2021/07/29 23:09:26;;;;;;;;;;;;;;;;;;5078091;28;1207;-80
2021/07/29 23:11:59;;;;;;;;;;;;;;;;;;5096440;28;961;-80
2021/07/29 23:20:04;;;;;;;;;;;;;;;;;;5014289;28;626;-79
2021/07/29 23:28:07;;;;;;;;;;;;;;;;;;4974784;28;1121;-79
2021/07/29 23:28:12;;;;;;;;;;;;;;;;;;4974998;28;1016;-79
2021/07/29 23:30:39;;;;;;;;;;;;;;;;;;4975051;28;946;-80
2021/07/29 23:33:06;;;;;;;;;;;;;;;;;;4959041;28;1239;-80
2021/07/29 23:35:33;;;;;;;;;;;;;;;;;;4958702;28;1940;-79
2021/07/29 23:38:00;;;;;;;;;;;;;;;;;;4958878;28;1318;-79
2021/07/29 23:40:35;;;;;;;;;;;;;;;;;;4959010;28;1322;-80
2021/07/29 23:43:00;;;;;;;;;;;;;;;;;;4958650;28;1296;-80
2021/07/29 23:45:34;;;;;;;;;;;;;;;;;;4958753;28;1332;-79
2021/07/29 23:48:00;;;;;;;;;;;;;;;;;;4974644;28;1111;-79
2021/07/29 23:50:27;;;;;;;;;;;;;;;;;;4958755;28;1217;-79